Time;durP1;ratioP1;P1;durP2;ratioP2;P2;SDS_P1;SDS_P2;PMS_P1;PMS_P2;Temp;Humidity;BMP_temperature;BMP_pressure;BME280_temperature;BME280_humidity;BME280_pressure;Samples;Min_cycle;Max_cycle;Signal;HPM_P1;HPM_P2
2024/01/07 00:00:13;;;;;;;14.43;11.35;;;4.30;99.90;;;;;;5073533;28;20052;-76
2024/01/07 00:02:38;;;;;;;13.88;10.63;;;4.20;99.90;;;;;;5048313;28;20397;-78
2024/01/07 00:05:04;;;;;;;13.32;11.35;;;3.90;99.90;;;;;;5020420;28;20037;-74
2024/01/07 00:07:30;;;;;;;14.65;10.65;;;4.30;99.90;;;;;;5047028;28;20076;-72
2024/01/07 00:09:56;;;;;;;13.77;9.85;;;3.80;99.90;;;;;;5035429;28;20083;-77
2024/01/07 00:12:21;;;;;;;15.07;11.10;;;4.20;99.90;;;;;;5050599;28;20045;-73
2024/01/07 00:14:47;;;;;;;12.57;10.20;;;3.80;99.90;;;;;;5051448;28;20052;-75
2024/01/07 00:17:13;;;;;;;11.15;9.10;;;4.50;99.90;;;;;;5034106;28;20041;-76
2024/01/07 00:19:40;;;;;;;10.25;8.98;;;3.70;89.60;;;;;;5034583;28;20481;-77
2024/01/07 00:22:06;;;;;;;10.98;8.88;;;3.90;68.50;;;;;;5061284;28;20099;-73
2024/01/07 00:24:31;;;;;;;11.13;8.70;;;4.20;68.80;;;;;;5046334;28;20044;-73
2024/01/07 00:26:57;;;;;;;11.30;8.70;;;4.20;21.40;;;;;;5030617;28;20044;-75
2024/01/07 00:29:23;;;;;;;10.85;8.40;;;3.80;29.50;;;;;;5032283;28;20041;-76
2024/01/07 00:31:48;;;;;;;11.52;8.57;;;4.30;15.90;;;;;;5050708;28;20041;-76
2024/01/07 00:34:14;;;;;;;10.88;8.13;;;3.80;22.50;;;;;;5049919;28;21631;-73
2024/01/07 00:36:40;;;;;;;12.73;9.40;;;3.90;1.00;;;;;;5042260;28;20095;-72
2024/01/07 00:39:06;;;;;;;11.18;9.02;;;4.30;1.00;;;;;;5046921;28;20126;-73
2024/01/07 00:41:31;;;;;;;11.20;8.82;;;3.70;1.00;;;;;;5050016;28;20044;-76
2024/01/07 00:43:57;;;;;;;12.27;8.77;;;3.80;1.00;;;;;;5049881;28;20037;-74
2024/01/07 00:46:23;;;;;;;10.27;8.32;;;4.00;1.00;;;;;;5033287;28;20028;-74
2024/01/07 00:48:48;;;;;;;11.25;8.95;;;3.80;1.00;;;;;;5057120;28;20034;-71
2024/01/07 00:51:14;;;;;;;11.02;9.23;;;3.80;1.00;;;;;;5052199;28;20040;-70
2024/01/07 00:53:40;;;;;;;11.45;9.27;;;4.20;1.00;;;;;;5050498;28;20036;-76
2024/01/07 00:56:06;;;;;;;11.18;8.77;;;3.80;1.00;;;;;;5050029;28;20127;-78
2024/01/07 00:58:32;;;;;;;10.27;8.25;;;4.20;1.00;;;;;;5047484;28;20056;-71
2024/01/07 01:00:59;;;;;;;11.65;9.32;;;3.80;1.00;;;;;;5008154;28;20044;-71
2024/01/07 01:03:25;;;;;;;11.35;8.68;;;4.20;1.00;;;;;;5049542;28;20477;-72
2024/01/07 01:05:51;;;;;;;9.70;8.65;;;4.00;1.00;;;;;;5050254;28;20351;-75
2024/01/07 01:08:17;;;;;;;12.70;10.57;;;4.10;1.00;;;;;;5057936;28;20056;-76
2024/01/07 01:10:43;;;;;;;12.07;9.35;;;4.30;1.00;;;;;;5047150;28;20049;-72
2024/01/07 01:13:09;;;;;;;11.65;9.70;;;3.80;1.00;;;;;;5049962;28;20505;-73
2024/01/07 01:15:34;;;;;;;11.65;9.05;;;3.90;1.00;;;;;;5049777;28;20135;-72
2024/01/07 01:18:00;;;;;;;10.57;8.10;;;3.90;1.00;;;;;;5050117;28;20750;-72
2024/01/07 01:20:26;;;;;;;9.02;7.28;;;4.10;1.00;;;;;;5065789;28;20049;-77
2024/01/07 01:22:51;;;;;;;10.80;7.38;;;3.80;1.00;;;;;;5032979;28;20033;-73
2024/01/07 01:25:17;;;;;;;11.20;8.57;;;4.10;1.00;;;;;;5049376;28;20040;-71
2024/01/07 01:27:44;;;;;;;10.48;7.72;;;3.70;1.00;;;;;;5047754;28;20044;-72
2024/01/07 01:30:10;;;;;;;10.95;8.32;;;3.90;1.00;;;;;;5033815;28;20056;-72
2024/01/07 01:32:36;;;;;;;10.45;7.88;;;3.60;1.00;;;;;;5049742;28;20051;-75
2024/01/07 01:35:02;;;;;;;10.38;8.00;;;4.00;1.00;;;;;;5050052;28;20386;-71
2024/01/07 01:37:27;;;;;;;9.38;7.32;;;3.90;1.00;;;;;;5032204;28;20374;-72
2024/01/07 01:39:53;;;;;;;9.10;7.57;;;4.00;1.00;;;;;;5047739;28;20095;-75
2024/01/07 01:42:19;;;;;;;10.63;7.32;;;3.90;1.00;;;;;;5031694;28;20373;-70
2024/01/07 01:44:46;;;;;;;9.57;7.25;;;3.60;1.00;;;;;;5032894;28;20055;-72
2024/01/07 01:47:11;;;;;;;10.00;6.68;;;3.60;1.00;;;;;;5046307;28;20041;-72
2024/01/07 01:49:38;;;;;;;8.75;7.65;;;3.70;1.00;;;;;;5048169;28;20075;-72
2024/01/07 01:52:04;;;;;;;10.48;7.68;;;3.90;1.00;;;;;;5048635;28;20041;-75
2024/01/07 01:54:30;;;;;;;10.77;8.20;;;3.90;1.00;;;;;;5058105;28;20052;-70
2024/01/07 01:56:56;;;;;;;8.48;7.30;;;3.60;1.00;;;;;;5047474;28;20045;-74
2024/01/07 01:59:22;;;;;;;9.70;7.38;;;4.60;1.00;;;;;;5044941;28;20053;-73
2024/01/07 02:01:48;;;;;;;11.82;7.30;;;3.80;1.00;;;;;;5031365;28;20044;-72
2024/01/07 02:04:15;;;;;;;9.45;7.53;;;3.80;1.00;;;;;;5048823;28;20191;-71
2024/01/07 02:06:41;;;;;;;11.80;7.85;;;4.20;1.00;;;;;;5047874;28;20128;-72
2024/01/07 02:09:06;;;;;;;9.90;8.07;;;3.90;1.00;;;;;;5048891;28;20166;-72
2024/01/07 02:11:32;;;;;;;9.63;7.53;;;4.50;1.00;;;;;;5048595;28;20041;-73
2024/01/07 02:13:58;;;;;;;10.95;7.97;;;3.70;1.00;;;;;;5052471;28;20037;-71
2024/01/07 02:16:23;;;;;;;12.20;8.13;;;3.60;1.00;;;;;;5030184;28;20037;-71
2024/01/07 02:18:50;;;;;;;11.85;7.22;;;3.60;1.00;;;;;;5047696;28;20078;-73
2024/01/07 02:21:16;;;;;;;7.68;6.82;;;3.60;1.00;;;;;;5032691;28;20116;-72
2024/01/07 02:23:41;;;;;;;9.20;6.45;;;3.90;1.00;;;;;;5032425;28;20166;-73
2024/01/07 02:26:07;;;;;;;8.93;6.68;;;3.60;1.00;;;;;;5049546;28;20397;-75
2024/01/07 02:28:33;;;;;;;10.38;6.70;;;3.70;1.00;;;;;;5045774;28;20052;-74
2024/01/07 02:30:59;;;;;;;9.80;6.70;;;3.90;1.00;;;;;;5049204;28;20044;-75
2024/01/07 02:33:25;;;;;;;10.18;6.35;;;3.70;1.00;;;;;;5047166;28;20040;-77
2024/01/07 02:35:51;;;;;;;7.03;5.60;;;3.70;99.90;;;;;;5047690;28;20043;-74
2024/01/07 02:38:17;;;;;;;6.78;5.28;;;3.80;99.90;;;;;;5047688;28;20373;-76
2024/01/07 02:40:42;;;;;;;8.27;5.88;;;3.60;99.90;;;;;;5047022;28;20033;-73
2024/01/07 02:43:08;;;;;;;8.32;5.50;;;3.90;99.90;;;;;;5048508;28;20043;-72
2024/01/07 02:45:34;;;;;;;7.30;4.55;;;3.80;99.90;;;;;;5048255;28;20060;-72
2024/01/07 02:48:00;;;;;;;7.60;5.38;;;4.00;99.90;;;;;;5048309;28;20033;-74
2024/01/07 02:50:25;;;;;;;6.40;4.97;;;3.60;99.90;;;;;;5045419;28;20445;-75
2024/01/07 02:52:51;;;;;;;8.32;5.07;;;3.60;99.90;;;;;;5046540;28;20037;-73
2024/01/07 02:55:17;;;;;;;8.55;5.40;;;4.10;99.90;;;;;;5028916;28;20033;-75
2024/01/07 02:57:43;;;;;;;7.72;5.40;;;3.90;99.90;;;;;;5028431;28;20069;-72
2024/01/07 03:00:09;;;;;;;6.93;4.90;;;3.90;99.90;;;;;;5025593;28;20150;-70
2024/01/07 03:02:34;;;;;;;5.88;5.00;;;3.80;99.90;;;;;;5039024;28;20572;-72
2024/01/07 03:05:00;;;;;;;6.35;4.75;;;4.60;99.90;;;;;;5047590;28;20055;-74
2024/01/07 03:07:26;;;;;;;5.97;4.57;;;3.90;99.90;;;;;;5063009;28;20165;-71
2024/01/07 03:09:51;;;;;;;5.68;4.53;;;3.70;99.90;;;;;;5031417;28;20040;-75
2024/01/07 03:12:17;;;;;;;7.68;5.05;;;3.80;99.90;;;;;;5047977;28;20432;-69
2024/01/07 03:14:43;;;;;;;7.78;4.90;;;3.80;62.20;;;;;;5031379;28;20037;-75
2024/01/07 03:17:10;;;;;;;9.25;4.90;;;3.90;32.10;;;;;;5046293;28;20045;-72
2024/01/07 03:19:38;;;;;;;7.93;4.30;;;3.60;75.20;;;;;;5047159;28;20110;-76
2024/01/07 03:22:04;;;;;;;6.75;4.68;;;4.00;37.10;;;;;;5031755;28;20041;-69
2024/01/07 03:24:29;;;;;;;6.30;3.90;;;3.90;99.90;;;;;;5031543;28;20041;-74
2024/01/07 03:26:55;;;;;;;6.25;4.47;;;3.90;99.90;;;;;;5046122;28;20035;-74
2024/01/07 03:29:20;;;;;;;5.30;4.38;;;3.70;99.90;;;;;;5030780;28;20106;-74
2024/01/07 03:31:46;;;;;;;5.45;4.20;;;3.90;1.00;;;;;;5048176;28;20524;-74
2024/01/07 03:34:12;;;;;;;6.18;3.90;;;3.80;1.00;;;;;;5048610;28;20049;-72
2024/01/07 03:36:37;;;;;;;6.25;4.35;;;3.60;1.00;;;;;;5047760;28;20068;-75
2024/01/07 03:39:03;;;;;;;6.15;4.30;;;3.80;1.00;;;;;;5050227;28;20080;-73
2024/01/07 03:41:29;;;;;;;6.35;4.43;;;4.10;99.90;;;;;;5018083;28;20037;-72
2024/01/07 03:43:56;;;;;;;9.80;4.20;;;4.10;15.30;;;;;;5034346;28;20083;-73
2024/01/07 03:46:22;;;;;;;5.18;4.25;;;3.70;99.90;;;;;;5039119;28;20056;-70
2024/01/07 03:48:48;;;;;;;5.43;3.88;;;3.60;1.00;;;;;;5051730;28;20049;-71
2024/01/07 03:51:13;;;;;;;6.93;4.28;;;4.00;39.80;;;;;;5052641;28;20272;-75
2024/01/07 03:53:39;;;;;;;5.03;3.90;;;3.70;58.20;;;;;;5050584;28;20120;-71
2024/01/07 03:56:05;;;;;;;4.60;4.07;;;3.50;99.90;;;;;;5083740;28;20112;-70
2024/01/07 03:58:31;;;;;;;4.38;3.70;;;3.70;1.00;;;;;;5051061;28;20044;-71
2024/01/07 04:00:57;;;;;;;6.75;3.80;;;3.60;1.00;;;;;;5049209;28;20455;-70
2024/01/07 04:03:23;;;;;;;4.20;3.67;;;3.80;13.50;;;;;;5050705;28;20116;-74
2024/01/07 04:05:48;;;;;;;4.82;3.40;;;3.60;1.00;;;;;;5046500;28;20106;-72
2024/01/07 04:08:15;;;;;;;3.92;3.50;;;3.70;21.50;;;;;;5050344;28;20040;-73
2024/01/07 04:10:41;;;;;;;5.25;3.75;;;3.70;43.30;;;;;;5050276;28;20036;-73
2024/01/07 04:13:07;;;;;;;5.60;3.65;;;3.70;99.90;;;;;;5050667;28;20097;-70
2024/01/07 04:15:33;;;;;;;3.40;3.10;;;3.60;10.30;;;;;;5059540;28;20501;-74
2024/01/07 04:18:03;;;;;;;4.80;3.40;;;4.30;1.00;;;;;;5050074;28;20044;-70
2024/01/07 04:20:29;;;;;;;4.65;3.70;;;3.70;1.00;;;;;;5057964;28;20041;-74
2024/01/07 04:22:56;;;;;;;6.47;3.47;;;3.80;1.00;;;;;;5048882;28;20389;-72
2024/01/07 04:25:22;;;;;;;5.43;3.63;;;3.60;1.00;;;;;;5034665;28;20434;-69
2024/01/07 04:27:48;;;;;;;3.00;2.63;;;3.80;1.00;;;;;;5048288;28;20702;-75
2024/01/07 04:30:14;;;;;;;3.67;3.08;;;3.80;1.00;;;;;;5051580;28;20053;-78
2024/01/07 04:32:39;;;;;;;3.22;2.88;;;3.60;1.00;;;;;;5051359;28;20048;-73
2024/01/07 04:35:06;;;;;;;6.93;3.22;;;3.70;1.00;;;;;;5068739;28;20132;-75
2024/01/07 04:37:32;;;;;;;4.38;2.80;;;3.60;99.90;;;;;;5050470;28;20074;-75
2024/01/07 04:39:58;;;;;;;6.45;2.67;;;4.20;99.90;;;;;;5033946;28;20049;-76
2024/01/07 04:42:23;;;;;;;2.88;2.58;;;3.60;99.90;;;;;;5049759;28;20044;-72
2024/01/07 04:44:49;;;;;;;4.15;2.47;;;3.80;99.90;;;;;;5034325;28;20040;-71
2024/01/07 04:47:29;;;;;;;3.67;2.60;;;3.60;99.90;;;;;;5050591;28;20075;-73
2024/01/07 04:49:55;;;;;;;4.35;2.47;;;4.10;99.90;;;;;;5049473;28;20044;-74
2024/01/07 04:52:25;;;;;;;3.17;2.70;;;4.00;99.90;;;;;;5034468;28;20147;-72
2024/01/07 04:54:54;;;;;;;3.40;2.50;;;3.60;99.90;;;;;;5051010;28;20076;-73
2024/01/07 04:57:20;;;;;;;3.00;2.50;;;3.80;99.90;;;;;;5048865;28;20115;-72
2024/01/07 04:59:47;;;;;;;4.72;2.45;;;3.70;99.90;;;;;;5048225;28;20057;-73
2024/01/07 05:02:13;;;;;;;3.72;2.70;;;3.70;99.90;;;;;;5066652;28;20048;-75
2024/01/07 05:04:39;;;;;;;4.78;2.67;;;3.70;99.90;;;;;;5014425;28;20033;-74
2024/01/07 05:07:05;;;;;;;4.57;2.30;;;3.80;99.90;;;;;;5031271;28;20040;-69
2024/01/07 05:09:32;;;;;;;5.03;2.55;;;3.80;99.90;;;;;;5049189;28;20045;-72
2024/01/07 05:11:58;;;;;;;4.03;2.85;;;3.80;99.90;;;;;;5049775;28;20075;-71
2024/01/07 05:14:24;;;;;;;4.40;2.72;;;3.90;99.90;;;;;;5050712;28;20068;-73
2024/01/07 05:16:49;;;;;;;3.30;2.40;;;3.70;99.90;;;;;;5030951;28;20067;-77
2024/01/07 05:19:15;;;;;;;4.20;2.75;;;3.80;99.90;;;;;;5048802;28;20036;-71
2024/01/07 05:21:41;;;;;;;5.93;2.85;;;3.80;99.80;;;;;;5049187;28;20485;-70
2024/01/07 05:24:06;;;;;;;4.22;2.15;;;3.70;97.60;;;;;;5055020;28;20107;-76
2024/01/07 05:26:43;;;;;;;6.47;2.65;;;3.80;91.00;;;;;;5049709;28;20737;-74
2024/01/07 05:29:09;;;;;;;3.72;2.30;;;3.80;98.20;;;;;;5031370;28;20090;-72
2024/01/07 05:31:34;;;;;;;5.65;2.50;;;4.00;96.50;;;;;;5040926;28;20497;-73
2024/01/07 05:34:00;;;;;;;3.92;2.30;;;3.70;99.90;;;;;;5047652;28;20041;-74
2024/01/07 05:36:26;;;;;;;3.58;2.10;;;3.70;82.90;;;;;;5049607;28;20041;-72
2024/01/07 05:38:51;;;;;;;4.35;2.47;;;3.80;62.00;;;;;;5059433;28;20048;-72
2024/01/07 05:41:17;;;;;;;3.53;2.13;;;3.80;23.10;;;;;;5055310;28;20595;-74
2024/01/07 05:43:42;;;;;;;3.45;2.40;;;3.60;20.50;;;;;;5054894;28;20448;-72
2024/01/07 05:46:08;;;;;;;5.03;2.47;;;3.90;24.40;;;;;;5049220;28;20033;-72
2024/01/07 05:48:48;;;;;;;2.78;2.05;;;3.70;40.00;;;;;;5032138;28;20048;-72
2024/01/07 05:51:14;;;;;;;2.92;1.90;;;3.70;13.70;;;;;;5049009;28;20061;-75
2024/01/07 05:53:41;;;;;;;4.55;2.13;;;4.10;16.00;;;;;;5047365;28;20068;-75
2024/01/07 05:56:07;;;;;;;3.65;2.15;;;3.70;49.50;;;;;;5049710;28;20086;-73
2024/01/07 05:58:33;;;;;;;4.95;2.50;;;3.90;1.00;;;;;;5049489;28;20547;-75
2024/01/07 06:00:58;;;;;;;3.33;2.53;;;3.80;27.70;;;;;;5050087;28;20034;-71
2024/01/07 06:03:24;;;;;;;4.68;2.25;;;4.70;77.00;;;;;;5047597;28;20036;-75
2024/01/07 06:05:50;;;;;;;3.65;2.10;;;3.80;83.40;;;;;;5033130;28;20713;-70
2024/01/07 06:08:15;;;;;;;2.78;2.03;;;3.80;5.20;;;;;;5033454;28;20533;-77
2024/01/07 06:10:41;;;;;;;3.28;2.17;;;4.70;36.20;;;;;;5031659;28;20469;-75
2024/01/07 06:13:07;;;;;;;3.05;2.20;;;3.80;1.00;;;;;;5047223;28;20048;-77
2024/01/07 06:15:33;;;;;;;5.50;2.47;;;4.00;7.50;;;;;;5049303;28;20041;-77
2024/01/07 06:17:58;;;;;;;3.65;2.15;;;4.20;18.30;;;;;;5049508;28;20052;-73
2024/01/07 06:20:24;;;;;;;3.13;1.92;;;3.80;13.20;;;;;;5041825;28;20048;-72
2024/01/07 06:22:50;;;;;;;3.75;2.30;;;3.80;14.10;;;;;;5047188;28;20037;-72
2024/01/07 06:25:16;;;;;;;3.30;2.00;;;3.90;1.00;;;;;;5078734;28;20120;-74
2024/01/07 06:27:42;;;;;;;2.40;1.70;;;3.70;1.00;;;;;;5032849;28;20048;-73
2024/01/07 06:30:08;;;;;;;3.65;2.03;;;3.80;1.00;;;;;;5012371;28;20033;-73
2024/01/07 06:32:35;;;;;;;3.15;2.10;;;3.70;1.00;;;;;;5049005;28;20057;-72
2024/01/07 06:35:01;;;;;;;2.90;2.08;;;3.90;1.00;;;;;;5048622;28;20436;-72
2024/01/07 06:37:29;;;;;;;4.18;2.15;;;3.70;99.90;;;;;;5032498;28;20041;-74
2024/01/07 06:39:55;;;;;;;2.63;1.92;;;3.90;99.90;;;;;;5048735;28;20059;-74
2024/01/07 06:42:20;;;;;;;3.00;1.80;;;3.60;1.00;;;;;;5048174;28;20044;-73
2024/01/07 06:44:46;;;;;;;3.15;2.00;;;4.00;1.00;;;;;;5048527;28;20101;-72
2024/01/07 06:47:12;;;;;;;2.55;1.75;;;3.70;1.00;;;;;;5079129;28;20128;-73
2024/01/07 06:49:38;;;;;;;3.15;1.85;;;3.60;1.00;;;;;;5048759;28;20045;-74
2024/01/07 06:52:05;;;;;;;3.20;1.83;;;3.70;1.00;;;;;;5047251;28;20044;-69
2024/01/07 06:54:30;;;;;;;2.50;1.90;;;3.60;99.90;;;;;;5080508;28;20748;-73
2024/01/07 06:56:56;;;;;;;2.58;1.70;;;4.00;1.00;;;;;;5031228;28;20124;-73
2024/01/07 06:59:22;;;;;;;2.55;1.90;;;3.70;99.90;;;;;;5076316;28;20223;-74
2024/01/07 07:01:47;;;;;;;2.47;1.48;;;3.50;99.90;;;;;;5057589;28;20037;-73
2024/01/07 07:04:13;;;;;;;3.03;1.70;;;3.50;99.90;;;;;;5048335;28;20546;-74
2024/01/07 07:06:38;;;;;;;3.58;1.50;;;3.50;99.90;;;;;;5048459;28;20423;-74
2024/01/07 07:09:04;;;;;;;2.55;1.50;;;3.70;99.90;;;;;;5012054;28;20599;-71
2024/01/07 07:11:30;;;;;;;2.25;1.60;;;3.50;99.90;;;;;;5035064;28;20045;-73
2024/01/07 07:13:55;;;;;;;2.28;1.65;;;3.70;99.90;;;;;;5047190;28;20477;-69
2024/01/07 07:16:21;;;;;;;3.17;1.48;;;3.40;99.90;;;;;;5079882;28;20048;-74
2024/01/07 07:18:47;;;;;;;3.28;1.88;;;3.50;99.90;;;;;;5052089;28;20049;-71
2024/01/07 07:21:13;;;;;;;3.35;1.70;;;3.50;99.90;;;;;;5020754;28;20397;-72
2024/01/07 07:23:38;;;;;;;3.25;2.00;;;3.40;99.90;;;;;;5044212;28;20367;-72
2024/01/07 07:26:04;;;;;;;3.15;1.88;;;3.60;99.90;;;;;;5028297;28;20041;-73
2024/01/07 07:28:30;;;;;;;2.90;1.90;;;3.60;99.90;;;;;;5046998;28;20073;-72
2024/01/07 07:30:55;;;;;;;2.80;1.60;;;3.50;99.90;;;;;;5046762;28;20039;-76
2024/01/07 07:33:21;;;;;;;3.78;2.85;;;3.10;99.90;;;;;;5048365;28;20037;-73
2024/01/07 07:35:47;;;;;;;3.38;2.63;;;3.10;99.90;;;;;;5048318;28;20040;-75
2024/01/07 07:38:12;;;;;;;4.10;2.78;;;3.50;99.90;;;;;;5076435;28;20037;-74
2024/01/07 07:40:38;;;;;;;3.83;2.10;;;3.60;99.90;;;;;;5058070;28;20114;-76
2024/01/07 07:43:04;;;;;;;5.10;2.08;;;3.30;99.90;;;;;;5048129;28;20611;-69
2024/01/07 07:45:29;;;;;;;2.90;1.88;;;3.00;99.90;;;;;;5065337;28;20437;-74
2024/01/07 07:47:55;;;;;;;3.92;2.25;;;3.10;99.90;;;;;;5047925;28;20128;-72
2024/01/07 07:50:21;;;;;;;3.38;2.08;;;3.70;1.00;;;;;;5044797;28;20660;-75
2024/01/07 07:52:47;;;;;;;4.53;2.38;;;3.00;1.00;;;;;;5031046;28;20124;-72
2024/01/07 07:55:13;;;;;;;11.88;7.28;;;3.10;1.00;;;;;;5048402;28;20655;-75
2024/01/07 07:57:38;;;;;;;12.20;8.68;;;3.10;1.00;;;;;;5031345;28;20041;-74
2024/01/07 08:00:06;;;;;;;5.30;3.25;;;3.30;1.00;;;;;;5059086;28;20046;-74
2024/01/07 08:02:32;;;;;;;4.85;3.88;;;3.20;1.00;;;;;;5047880;28;20544;-73
2024/01/07 08:04:57;;;;;;;8.35;5.45;;;3.30;1.00;;;;;;5048059;28;20072;-73
2024/01/07 08:07:23;;;;;;;4.38;3.17;;;3.40;1.00;;;;;;5013861;28;20049;-73
2024/01/07 08:09:49;;;;;;;6.78;4.40;;;3.90;99.90;;;;;;5029574;28;20049;-71
2024/01/07 08:12:15;;;;;;;5.85;4.10;;;3.30;99.90;;;;;;5071050;28;20037;-72
2024/01/07 08:14:43;;;;;;;7.43;5.13;;;3.40;99.90;;;;;;5047205;28;20033;-71
2024/01/07 08:17:09;;;;;;;5.50;3.90;;;3.50;99.90;;;;;;5047938;28;20095;-72
2024/01/07 08:19:35;;;;;;;3.92;3.13;;;3.40;99.90;;;;;;5030715;28;20041;-75
2024/01/07 08:22:01;;;;;;;4.65;2.60;;;3.60;99.90;;;;;;5043962;28;20048;-69
2024/01/07 08:24:27;;;;;;;3.08;2.22;;;3.40;99.90;;;;;;5030583;28;20029;-73
2024/01/07 08:26:53;;;;;;;4.13;2.00;;;3.60;99.90;;;;;;5032633;28;20029;-71
2024/01/07 08:29:19;;;;;;;2.55;1.85;;;3.80;99.90;;;;;;5034629;28;20048;-73
2024/01/07 08:31:44;;;;;;;2.97;1.90;;;3.60;99.90;;;;;;5050474;28;20049;-72
2024/01/07 08:34:10;;;;;;;5.00;2.80;;;3.50;99.90;;;;;;5050920;28;20036;-78
2024/01/07 08:36:35;;;;;;;4.97;3.00;;;3.70;99.90;;;;;;5034513;28;20151;-78
2024/01/07 08:39:01;;;;;;;3.33;2.28;;;3.70;99.90;;;;;;5050125;28;20037;-71
2024/01/07 08:41:27;;;;;;;3.17;1.88;;;3.60;99.90;;;;;;5049834;28;20037;-77
2024/01/07 08:43:53;;;;;;;2.78;2.55;;;3.70;99.90;;;;;;5031850;28;20542;-74
2024/01/07 08:46:21;;;;;;;2.35;1.80;;;3.60;99.90;;;;;;5015309;28;20579;-73
2024/01/07 08:48:47;;;;;;;4.25;2.60;;;3.50;99.90;;;;;;5034053;28;20428;-76
2024/01/07 08:51:13;;;;;;;3.28;2.60;;;3.70;99.90;;;;;;5050492;28;20048;-74
2024/01/07 08:53:39;;;;;;;2.15;1.65;;;3.60;99.90;;;;;;5062871;28;20072;-77
2024/01/07 08:56:06;;;;;;;3.00;2.50;;;3.60;99.90;;;;;;5013799;28;20037;-73
2024/01/07 08:58:32;;;;;;;3.67;2.28;;;4.60;99.90;;;;;;5075976;28;20124;-74
2024/01/07 09:00:58;;;;;;;2.88;1.98;;;3.70;99.90;;;;;;5033876;28;20048;-72
2024/01/07 09:03:24;;;;;;;2.55;1.90;;;3.90;99.90;;;;;;4999006;28;20043;-72
2024/01/07 09:05:50;;;;;;;4.13;1.85;;;3.90;99.90;;;;;;5050914;28;20041;-75
2024/01/07 09:08:15;;;;;;;6.05;2.30;;;3.80;99.90;;;;;;5050262;28;20640;-72
2024/01/07 09:10:41;;;;;;;2.60;2.25;;;3.80;99.90;;;;;;5066312;28;20049;-76
2024/01/07 09:13:07;;;;;;;2.33;1.80;;;3.70;99.90;;;;;;5062121;28;20021;-72
2024/01/07 09:15:32;;;;;;;3.08;2.17;;;3.90;99.90;;;;;;5033819;28;20029;-74
2024/01/07 09:17:58;;;;;;;3.00;2.10;;;3.80;99.90;;;;;;5034479;28;20401;-74
2024/01/07 09:20:24;;;;;;;3.75;1.92;;;3.90;99.90;;;;;;5017128;28;20517;-72
2024/01/07 09:22:50;;;;;;;3.40;2.05;;;3.80;99.90;;;;;;5032730;28;20041;-72
2024/01/07 09:25:16;;;;;;;3.22;2.30;;;3.90;99.90;;;;;;5047973;28;20595;-75
2024/01/07 09:27:42;;;;;;;4.93;2.17;;;3.80;66.30;;;;;;5050021;28;20071;-75
2024/01/07 09:30:10;;;;;;;2.67;2.10;;;3.90;84.90;;;;;;5047980;28;20636;-76
2024/01/07 09:32:36;;;;;;;3.55;2.20;;;3.80;99.90;;;;;;5048120;28;20055;-71
2024/01/07 09:35:02;;;;;;;3.72;2.17;;;3.90;99.90;;;;;;5046142;28;20421;-77
2024/01/07 09:37:28;;;;;;;3.30;2.00;;;4.00;99.90;;;;;;5032893;28;20048;-78
2024/01/07 09:39:54;;;;;;;3.72;2.67;;;3.80;99.90;;;;;;5049007;28;20068;-74
2024/01/07 09:42:20;;;;;;;3.75;2.47;;;3.90;99.90;;;;;;5032553;28;20084;-75
2024/01/07 09:44:46;;;;;;;3.63;2.30;;;4.30;14.80;;;;;;5005905;28;20045;-76
2024/01/07 09:47:14;;;;;;;3.47;2.40;;;4.10;99.90;;;;;;5032114;28;20409;-73
2024/01/07 09:49:41;;;;;;;3.53;2.42;;;4.00;99.90;;;;;;5049388;28;20037;-73
2024/01/07 09:52:09;;;;;;;8.60;2.65;;;4.00;1.00;;;;;;5047425;28;20505;-71
2024/01/07 09:54:39;;;;;;;3.90;2.63;;;4.00;1.00;;;;;;5053646;28;20048;-75
2024/01/07 09:57:07;;;;;;;3.00;2.25;;;4.00;99.90;;;;;;5046272;28;20047;-77
2024/01/07 09:59:34;;;;;;;4.30;2.95;;;4.20;99.90;;;;;;5049731;28;20057;-80
2024/01/07 10:02:00;;;;;;;2.63;2.35;;;4.20;99.90;;;;;;5049976;28;20060;-72
2024/01/07 10:04:30;;;;;;;4.13;2.42;;;4.20;99.90;;;;;;5048913;28;20102;-73
2024/01/07 10:06:57;;;;;;;4.88;2.65;;;4.10;99.90;;;;;;5029088;28;20041;-75
2024/01/07 10:09:23;;;;;;;3.97;2.10;;;4.20;99.90;;;;;;5065964;28;20045;-75
2024/01/07 10:11:53;;;;;;;4.78;2.55;;;4.20;99.90;;;;;;5049659;28;20101;-77
2024/01/07 10:14:22;;;;;;;5.05;2.78;;;4.10;99.90;;;;;;5014328;28;20075;-73
2024/01/07 10:16:49;;;;;;;4.88;3.03;;;4.40;99.90;;;;;;5031069;28;20133;-74
2024/01/07 10:19:23;;;;;;;4.85;2.88;;;4.20;99.90;;;;;;5048106;28;20044;-73
2024/01/07 10:22:11;;;;;;;5.95;2.85;;;4.20;99.90;;;;;;5048383;28;20098;-71
2024/01/07 10:24:39;;;;;;;3.58;2.63;;;4.30;99.90;;;;;;5046565;28;20385;-73
2024/01/07 10:27:05;;;;;;;2.85;2.45;;;4.40;99.90;;;;;;5056673;28;20111;-75
2024/01/07 10:29:31;;;;;;;4.68;2.70;;;5.50;99.90;;;;;;5073046;28;20123;-74
2024/01/07 10:32:03;;;;;;;2.78;2.22;;;4.60;90.80;;;;;;5030210;28;20045;-71
2024/01/07 10:34:31;;;;;;;3.10;2.45;;;4.90;1.00;;;;;;5031651;28;20051;-76
2024/01/07 10:37:00;;;;;;;4.70;3.00;;;5.10;1.00;;;;;;5047150;28;20041;-76
2024/01/07 10:39:26;;;;;;;4.15;2.72;;;5.20;99.90;;;;;;5030887;28;20633;-76
2024/01/07 10:41:56;;;;;;;3.50;2.75;;;6.20;99.90;;;;;;5066285;28;20071;-75
2024/01/07 10:44:24;;;;;;;2.60;2.38;;;6.20;99.90;;;;;;5031675;28;20385;-74
2024/01/07 10:46:51;;;;;;;3.42;2.45;;;5.90;99.90;;;;;;5043977;28;20548;-74
2024/01/07 10:49:21;;;;;;;6.20;2.47;;;5.90;99.90;;;;;;5044741;28;20111;-71
2024/01/07 10:52:01;;;;;;;4.95;2.63;;;5.50;99.90;;;;;;5031107;28;20041;-71
2024/01/07 10:54:29;;;;;;;4.68;2.50;;;5.40;99.90;;;;;;5075297;28;20045;-72
2024/01/07 10:56:58;;;;;;;3.88;2.38;;;5.00;99.90;;;;;;5045433;28;20044;-72
2024/01/07 10:59:25;;;;;;;3.83;2.47;;;5.10;99.90;;;;;;5029727;28;20052;-78
2024/01/07 11:01:52;;;;;;;4.32;2.33;;;5.00;99.90;;;;;;5048472;28;20141;-74
2024/01/07 11:04:24;;;;;;;3.88;2.63;;;5.00;99.90;;;;;;5033176;28;20124;-76
2024/01/07 11:07:05;;;;;;;4.07;3.25;;;4.90;99.90;;;;;;5029945;28;20103;-73
2024/01/07 11:09:37;;;;;;;5.63;4.57;;;4.70;99.90;;;;;;5031553;28;20394;-73
2024/01/07 11:12:04;;;;;;;4.82;2.92;;;4.70;99.90;;;;;;5027752;28;20070;-77
2024/01/07 11:14:44;;;;;;;4.00;2.95;;;4.50;99.90;;;;;;5050535;28;20496;-78
2024/01/07 11:17:13;;;;;;;5.47;3.55;;;4.50;99.90;;;;;;5040148;28;20033;-78
2024/01/07 11:19:49;;;;;;;5.93;3.38;;;4.40;99.90;;;;;;5030842;28;20043;-72
2024/01/07 11:22:27;;;;;;;4.75;3.45;;;4.60;99.90;;;;;;5029075;28;20378;-74
2024/01/07 11:25:01;;;;;;;5.00;3.47;;;4.80;99.90;;;;;;5040062;28;20041;-76
2024/01/07 11:27:31;;;;;;;5.38;3.38;;;5.40;99.90;;;;;;5047627;28;20437;-74
2024/01/07 11:30:04;;;;;;;5.03;3.53;;;5.60;99.90;;;;;;5047424;28;20037;-75
2024/01/07 11:32:30;;;;;;;7.15;3.92;;;6.10;99.90;;;;;;5030969;28;20079;-78
2024/01/07 11:34:59;;;;;;;5.00;3.53;;;5.90;99.90;;;;;;5076092;28;20041;-74
2024/01/07 11:37:25;;;;;;;6.40;3.72;;;5.80;99.90;;;;;;5047091;28;20395;-76
2024/01/07 11:39:55;;;;;;;6.78;3.97;;;6.10;99.90;;;;;;5075534;28;20040;-75
2024/01/07 11:42:22;;;;;;;5.00;3.78;;;5.30;99.90;;;;;;5029495;28;20037;-79
2024/01/07 11:44:50;;;;;;;6.78;4.05;;;5.00;99.90;;;;;;5047866;28;20033;-78
2024/01/07 11:47:20;;;;;;;4.88;3.63;;;5.10;99.90;;;;;;5030892;28;20498;-75
2024/01/07 11:49:47;;;;;;;6.53;4.28;;;5.30;99.90;;;;;;5045896;28;20075;-76
2024/01/07 11:52:14;;;;;;;5.75;3.53;;;5.20;99.90;;;;;;5045434;28;20040;-73
2024/01/07 11:54:40;;;;;;;5.60;3.70;;;5.40;99.90;;;;;;5047250;28;20040;-73
2024/01/07 11:57:06;;;;;;;6.60;4.28;;;5.50;99.90;;;;;;5060976;28;20489;-78
2024/01/07 11:59:34;;;;;;;6.60;4.32;;;5.60;99.90;;;;;;5031512;28;20076;-74
2024/01/07 12:02:00;;;;;;;5.13;3.70;;;5.70;99.90;;;;;;5032121;28;20056;-77
2024/01/07 12:04:26;;;;;;;5.53;3.60;;;5.50;99.90;;;;;;5048505;28;20044;-75
2024/01/07 12:06:52;;;;;;;4.60;3.38;;;5.50;99.90;;;;;;5051861;28;20036;-74
2024/01/07 12:09:18;;;;;;;10.57;7.00;;;5.40;99.90;;;;;;5018888;28;20115;-74
2024/01/07 12:11:44;;;;;;;12.07;8.05;;;5.20;99.90;;;;;;5031348;28;20117;-74
2024/01/07 12:14:11;;;;;;;8.35;3.72;;;5.10;99.90;;;;;;5073095;28;20466;-74
2024/01/07 12:16:37;;;;;;;4.43;3.50;;;5.10;1.00;;;;;;5030992;28;20075;-75
2024/01/07 12:19:03;;;;;;;6.03;3.72;;;5.10;99.90;;;;;;5034699;28;20049;-74
2024/01/07 12:21:29;;;;;;;4.85;3.90;;;5.00;1.00;;;;;;5015006;28;20036;-77
2024/01/07 12:23:56;;;;;;;6.68;4.10;;;4.80;1.00;;;;;;5032497;28;20037;-77
2024/01/07 12:26:27;;;;;;;5.35;3.60;;;4.60;99.90;;;;;;5031489;28;20119;-77
2024/01/07 12:28:54;;;;;;;7.00;3.88;;;4.60;1.00;;;;;;5050005;28;20049;-76
2024/01/07 12:31:21;;;;;;;6.40;3.90;;;4.60;83.50;;;;;;5033282;28;20045;-72
2024/01/07 12:33:47;;;;;;;6.53;3.80;;;4.60;99.90;;;;;;5045553;28;20081;-76
2024/01/07 12:36:13;;;;;;;6.40;3.97;;;4.40;99.90;;;;;;5048891;28;20113;-76
2024/01/07 12:38:39;;;;;;;8.35;3.97;;;4.30;1.00;;;;;;5050633;28;20120;-73
2024/01/07 12:41:05;;;;;;;5.30;3.92;;;4.20;99.90;;;;;;5027932;28;20047;-72
2024/01/07 12:43:31;;;;;;;5.85;4.55;;;4.30;99.90;;;;;;5048883;28;20036;-76
2024/01/07 12:46:01;;;;;;;6.32;4.22;;;4.30;1.00;;;;;;5034632;28;20041;-75
2024/01/07 12:48:26;;;;;;;6.30;4.07;;;4.20;99.90;;;;;;5028777;28;20120;-79
2024/01/07 12:50:52;;;;;;;5.95;3.85;;;4.20;98.20;;;;;;5041673;28;20452;-74
2024/01/07 12:53:18;;;;;;;6.25;4.20;;;4.20;99.90;;;;;;5049687;28;20032;-78